New Harbor, ME (Heathkit)

43° 52' 34"N, 69° 29' 40"W, Elevation 65 ft.
Eastern Time

Hourly observations for the last 72 hours

Date Time Temperature (°F) Humi-
dity

(%)
Wind
(mph)
Pressure Rain (in)
Air Dew 6 Hour 1 Hr 3 Hr 6 Hr Day
Alt
(in)
Sea
Level

(mb)
Max Min
25 02:00 45 34 55 43 65 SSW 3 G 5 30.01 1016.3 0.00
25 01:00 45 34 65 S 1 G 4 30.01 1016.3 0.00
25 00:00 45 34 66 SW 2 G 2 30.01 1016.3 0.10
24 23:00 46 35 66 SW 2 G 4 30.01 1016.3 0.10
24 22:00 47 36 66 SW 2 G 3 30.00 1016.0 0.10
24 21:00 50 39 66 SSW 1 G 2 29.99 1015.6 0.10
24 20:00 55 42 58 50 62 SE 2 G 5 29.96 1014.6 0.01 0.10
24 19:00 57 42 58 SE 5 G 9 29.95 1014.3 0.10
24 18:00 57 42 57 SE 3 G 14 29.91 1012.9 0.10
24 17:00 57 42 58 SE 10 G 20 29.86 1011.2 0.01 0.10
24 16:00 56 41 58 ESE 8 G 17 29.80 1009.2 0.10
24 15:00 56 43 62 SE 10 G 28 29.78 1008.5 0.01 0.10
24 14:00 56 44 58 44 63 SE 10 G 22 29.72 1006.5 0.09
24 13:00 55 44 66 SE 8 G 19 29.69 1005.5 0.09
24 12:00 52 41 66 SE 9 G 20 29.64 1003.8 0.09
24 11:00 51 40 65 S 10 G 22 29.60 1002.4 0.09
24 10:00 51 40 65 SE 3 G 18 29.55 1000.7 0.09
24 09:00 52 41 65 SSW 4 G 12 29.52 999.7 0.09
24 08:00 53 42 53 45 65 S 4 G 7 29.48 998.3 0.09
24 07:00 52 41 65 E 1 G 2 29.47 998.0 0.09
24 06:00 52 41 65 SSE 0 G 2 29.47 998.0 0.09
24 05:00 52 41 66 SE 0 G 1 29.45 997.3 0.09
24 04:00 52 41 65 SW 2 G 5 29.48 998.3 0.09
24 03:00 51 40 66 SW 3 G 7 29.49 998.7 0.09
24 02:00 51 40 51 45 66 SW 2 G 6 29.54 1000.4 0.01 0.22 0.28 0.09
24 01:00 51 40 66 ESE 2 G 14 29.56 1001.0 0.08 0.08
24 00:00 50 39 66 S 5 G 13 29.65 1004.1 0.13 0.18
23 23:00 50 39 67 S 8 G 17 29.68 1005.1 0.01 0.06 0.06
23 22:00 50 39 67 S 9 G 16 29.73 1006.8 0.05 0.05
23 21:00 50 40 68 S 8 G 15 29.78 1008.5 0.00
23 20:00 51 41 58 45 68 S 5 G 9 29.79 1008.8 0.00
23 19:00 52 42 68 SE 2 G 5 29.85 1010.9 0.00
23 18:00 52 42 68 S 4 G 10 29.89 1012.2 0.00
23 17:00 53 42 67 ESE 2 G 6 29.92 1013.2 0.00
23 16:00 55 43 63 S 6 G 11 29.96 1014.6 0.00
23 15:00 55 42 62 SSE 5 G 12 29.98 1015.3 0.00
23 14:00 56 43 60 47 62 SE 4 G 9 29.99 1015.6 0.00
23 13:00 58 42 56 SSE 6 G 15 30.04 1017.3 0.00
23 12:00 58 43 58 SSE 7 G 15 30.07 1018.3 0.00
23 11:00 60 41 50 S 6 G 12 30.08 1018.7 0.00
23 10:00 60 37 42 SSW 5 G 17 30.12 1020.0 0.00
23 09:00 54 42 63 ESE 3 G 5 30.12 1020.0 0.00
23 08:00 51 39 51 41 63 E 1 G 3 30.15 1021.0 0.00
23 07:00 50 38 63 SSE 1 G 2 30.17 1021.7 0.00
23 06:00 48 36 63 SW 2 G 4 30.16 1021.4 0.00
23 05:00 47 35 62 S 0 G 1 30.15 1021.0 0.00
23 04:00 46 34 62 SE 1 G 1 30.15 1021.0 0.00
23 03:00 46 34 62 SW 1 G 4 30.17 1021.7 0.00
23 02:00 47 34 51 44 61 WSW 4 G 7 30.17 1021.7 0.00
23 01:00 45 33 62 WSW 2 G 7 30.17 1021.7 0.00
23 00:00 47 34 61 WSW 3 G 7 30.16 1021.4 0.00
22 23:00 48 35 60 WSW 3 G 6 30.17 1021.7 0.00
22 22:00 48 35 61 WSW 3 G 9 30.16 1021.4 0.00
22 21:00 49 35 59 SW 4 G 8 30.17 1021.7 0.00
22 20:00 51 35 67 48 54 SSW 4 G 10 30.16 1021.4 0.00
22 19:00 55 36 49 SW 4 G 9 30.15 1021.0 0.00
22 18:00 59 34 39 S 5 G 10 30.12 1020.0 0.00
22 17:00 63 36 37 ESE 2 G 11 30.12 1020.0 0.00
22 16:00 67 41 39 SSW 4 G 18 30.10 1019.3 0.00
22 15:00 64 39 39 SE 6 G 15 30.09 1019.0 0.00
22 14:00 64 40 64 48 42 ESE 9 G 18 30.08 1018.7 0.00
22 13:00 63 39 41 SSW 4 G 14 30.07 1018.3 0.00
22 12:00 62 39 42 S 7 G 16 30.07 1018.3 0.00
22 11:00 58 38 48 SE 11 G 24 30.05 1017.6 0.00
22 10:00 57 35 44 S 6 G 22 30.04 1017.3 0.00
22 09:00 53 34 49 S 8 G 20 30.04 1017.3 0.00
22 08:00 52 35 53 41 52 S 4 G 19 30.01 1016.3 0.00
22 07:00 50 34 55 S 8 G 22 30.01 1016.3 0.00
22 06:00 47 33 58 S 6 G 19 29.98 1015.3 0.00
22 05:00 47 33 58 S 6 G 17 29.95 1014.3 0.00
22 04:00 48 35 60 SSE 5 G 15 29.91 1012.9 0.00
22 03:00 49 36 61 S 5 G 14 29.87 1011.5 0.00

Data generated by WxSolution Version 1.9.1.5, Build 2018.05.20.